sensor_id;sensor_type;location;lat;lon;timestamp;P1;durP1;ratioP1;P2;durP2;ratioP2
5191;SDS011;2615;44.524;11.284;2023-02-26T00:01:37;63.87;;;40.97;;
5191;SDS011;2615;44.524;11.284;2023-02-26T00:04:07;68.80;;;39.70;;
5191;SDS011;2615;44.524;11.284;2023-02-26T00:06:36;74.50;;;42.33;;
5191;SDS011;2615;44.524;11.284;2023-02-26T00:09:21;72.33;;;40.60;;
5191;SDS011;2615;44.524;11.284;2023-02-26T00:11:49;73.10;;;43.30;;
5191;SDS011;2615;44.524;11.284;2023-02-26T00:14:18;60.83;;;38.03;;
5191;SDS011;2615;44.524;11.284;2023-02-26T00:16:46;56.13;;;35.83;;
5191;SDS011;2615;44.524;11.284;2023-02-26T00:19:23;66.20;;;37.63;;
5191;SDS011;2615;44.524;11.284;2023-02-26T00:21:51;65.93;;;39.40;;
5191;SDS011;2615;44.524;11.284;2023-02-26T00:24:20;68.53;;;37.23;;
5191;SDS011;2615;44.524;11.284;2023-02-26T00:26:48;60.20;;;37.47;;
5191;SDS011;2615;44.524;11.284;2023-02-26T00:29:16;57.17;;;36.20;;
5191;SDS011;2615;44.524;11.284;2023-02-26T00:31:45;58.87;;;37.67;;
5191;SDS011;2615;44.524;11.284;2023-02-26T00:34:13;62.27;;;36.77;;
5191;SDS011;2615;44.524;11.284;2023-02-26T00:36:44;55.47;;;35.20;;
5191;SDS011;2615;44.524;11.284;2023-02-26T00:39:24;56.10;;;34.50;;
5191;SDS011;2615;44.524;11.284;2023-02-26T00:42:03;55.37;;;34.10;;
5191;SDS011;2615;44.524;11.284;2023-02-26T00:44:32;53.70;;;35.30;;
5191;SDS011;2615;44.524;11.284;2023-02-26T00:47:03;52.00;;;35.83;;
5191;SDS011;2615;44.524;11.284;2023-02-26T00:49:44;55.97;;;32.67;;
5191;SDS011;2615;44.524;11.284;2023-02-26T00:52:25;56.87;;;34.50;;
5191;SDS011;2615;44.524;11.284;2023-02-26T00:55:00;59.20;;;35.67;;
5191;SDS011;2615;44.524;11.284;2023-02-26T00:57:28;62.23;;;35.00;;
5191;SDS011;2615;44.524;11.284;2023-02-26T00:59:56;57.60;;;35.00;;
5191;SDS011;2615;44.524;11.284;2023-02-26T01:02:24;66.73;;;38.00;;
5191;SDS011;2615;44.524;11.284;2023-02-26T01:04:52;58.50;;;35.07;;
5191;SDS011;2615;44.524;11.284;2023-02-26T01:07:21;59.30;;;35.90;;
5191;SDS011;2615;44.524;11.284;2023-02-26T01:09:53;64.37;;;38.40;;
5191;SDS011;2615;44.524;11.284;2023-02-26T01:12:21;72.17;;;39.13;;
5191;SDS011;2615;44.524;11.284;2023-02-26T01:14:50;64.00;;;38.37;;
5191;SDS011;2615;44.524;11.284;2023-02-26T01:17:20;75.40;;;40.53;;
5191;SDS011;2615;44.524;11.284;2023-02-26T01:19:52;70.63;;;41.33;;
5191;SDS011;2615;44.524;11.284;2023-02-26T01:22:22;60.17;;;39.20;;
5191;SDS011;2615;44.524;11.284;2023-02-26T01:24:58;79.07;;;43.87;;
5191;SDS011;2615;44.524;11.284;2023-02-26T01:27:30;75.43;;;44.07;;
5191;SDS011;2615;44.524;11.284;2023-02-26T01:29:59;68.27;;;42.33;;
5191;SDS011;2615;44.524;11.284;2023-02-26T01:32:29;68.67;;;42.50;;
5191;SDS011;2615;44.524;11.284;2023-02-26T01:35:08;84.53;;;41.60;;
5191;SDS011;2615;44.524;11.284;2023-02-26T01:37:48;73.47;;;42.63;;
5191;SDS011;2615;44.524;11.284;2023-02-26T01:40:26;79.20;;;49.33;;
5191;SDS011;2615;44.524;11.284;2023-02-26T01:43:12;88.43;;;50.73;;
5191;SDS011;2615;44.524;11.284;2023-02-26T01:45:51;83.43;;;49.90;;
5191;SDS011;2615;44.524;11.284;2023-02-26T01:48:28;101.07;;;55.03;;
5191;SDS011;2615;44.524;11.284;2023-02-26T01:51:02;93.13;;;53.80;;
5191;SDS011;2615;44.524;11.284;2023-02-26T01:53:31;88.00;;;53.17;;
5191;SDS011;2615;44.524;11.284;2023-02-26T01:56:02;88.13;;;54.67;;
5191;SDS011;2615;44.524;11.284;2023-02-26T01:58:34;88.10;;;54.60;;
5191;SDS011;2615;44.524;11.284;2023-02-26T02:01:04;104.37;;;58.17;;
5191;SDS011;2615;44.524;11.284;2023-02-26T02:03:34;76.43;;;50.67;;
5191;SDS011;2615;44.524;11.284;2023-02-26T02:06:06;105.83;;;57.83;;
5191;SDS011;2615;44.524;11.284;2023-02-26T02:08:37;100.17;;;56.80;;
5191;SDS011;2615;44.524;11.284;2023-02-26T02:11:07;93.17;;;54.57;;
5191;SDS011;2615;44.524;11.284;2023-02-26T02:13:40;89.27;;;55.40;;
5191;SDS011;2615;44.524;11.284;2023-02-26T02:16:20;100.53;;;56.90;;
5191;SDS011;2615;44.524;11.284;2023-02-26T02:18:57;97.07;;;55.43;;
5191;SDS011;2615;44.524;11.284;2023-02-26T02:21:47;101.53;;;59.00;;
5191;SDS011;2615;44.524;11.284;2023-02-26T02:24:36;100.07;;;55.37;;
5191;SDS011;2615;44.524;11.284;2023-02-26T02:27:16;96.20;;;56.43;;
5191;SDS011;2615;44.524;11.284;2023-02-26T02:30:05;98.43;;;53.47;;
5191;SDS011;2615;44.524;11.284;2023-02-26T02:32:49;102.17;;;53.83;;
5191;SDS011;2615;44.524;11.284;2023-02-26T02:35:21;91.87;;;55.20;;
5191;SDS011;2615;44.524;11.284;2023-02-26T02:37:55;97.00;;;55.60;;
5191;SDS011;2615;44.524;11.284;2023-02-26T02:40:27;93.23;;;53.37;;
5191;SDS011;2615;44.524;11.284;2023-02-26T02:43:00;99.43;;;58.67;;
5191;SDS011;2615;44.524;11.284;2023-02-26T02:45:33;97.93;;;54.73;;
5191;SDS011;2615;44.524;11.284;2023-02-26T02:48:07;102.53;;;54.13;;
5191;SDS011;2615;44.524;11.284;2023-02-26T02:50:40;97.67;;;56.67;;
5191;SDS011;2615;44.524;11.284;2023-02-26T02:53:13;97.37;;;53.93;;
5191;SDS011;2615;44.524;11.284;2023-02-26T02:55:46;92.97;;;53.17;;
5191;SDS011;2615;44.524;11.284;2023-02-26T02:58:20;95.30;;;57.53;;
5191;SDS011;2615;44.524;11.284;2023-02-26T03:00:52;103.00;;;56.60;;
5191;SDS011;2615;44.524;11.284;2023-02-26T03:03:25;103.37;;;54.50;;
5191;SDS011;2615;44.524;11.284;2023-02-26T03:05:57;92.37;;;56.20;;
5191;SDS011;2615;44.524;11.284;2023-02-26T03:08:26;96.80;;;56.30;;
5191;SDS011;2615;44.524;11.284;2023-02-26T03:10:56;89.43;;;51.70;;
5191;SDS011;2615;44.524;11.284;2023-02-26T03:13:25;90.37;;;52.00;;
5191;SDS011;2615;44.524;11.284;2023-02-26T03:16:07;86.23;;;52.50;;
5191;SDS011;2615;44.524;11.284;2023-02-26T03:18:46;83.70;;;49.90;;
5191;SDS011;2615;44.524;11.284;2023-02-26T03:21:25;79.50;;;50.07;;
5191;SDS011;2615;44.524;11.284;2023-02-26T03:23:59;97.47;;;57.53;;
5191;SDS011;2615;44.524;11.284;2023-02-26T03:26:49;86.93;;;52.80;;
5191;SDS011;2615;44.524;11.284;2023-02-26T03:29:25;90.73;;;54.77;;
5191;SDS011;2615;44.524;11.284;2023-02-26T03:32:01;69.93;;;42.60;;
5191;SDS011;2615;44.524;11.284;2023-02-26T03:34:36;27.67;;;17.87;;
5191;SDS011;2615;44.524;11.284;2023-02-26T03:37:10;20.23;;;11.10;;
5191;SDS011;2615;44.524;11.284;2023-02-26T03:39:45;14.63;;;7.97;;
5191;SDS011;2615;44.524;11.284;2023-02-26T03:42:17;10.50;;;5.77;;
5191;SDS011;2615;44.524;11.284;2023-02-26T03:44:50;9.60;;;4.87;;
5191;SDS011;2615;44.524;11.284;2023-02-26T03:47:21;12.30;;;4.50;;
5191;SDS011;2615;44.524;11.284;2023-02-26T03:49:52;6.87;;;3.30;;
5191;SDS011;2615;44.524;11.284;2023-02-26T03:52:24;4.93;;;2.70;;
5191;SDS011;2615;44.524;11.284;2023-02-26T03:54:57;3.23;;;2.30;;
5191;SDS011;2615;44.524;11.284;2023-02-26T03:57:28;9.10;;;2.23;;
5191;SDS011;2615;44.524;11.284;2023-02-26T03:59:57;6.67;;;2.30;;
5191;SDS011;2615;44.524;11.284;2023-02-26T04:02:26;3.80;;;1.97;;
5191;SDS011;2615;44.524;11.284;2023-02-26T04:04:59;7.80;;;2.03;;
5191;SDS011;2615;44.524;11.284;2023-02-26T04:07:30;4.20;;;2.03;;
5191;SDS011;2615;44.524;11.284;2023-02-26T04:09:58;5.80;;;1.70;;
5191;SDS011;2615;44.524;11.284;2023-02-26T04:12:27;2.83;;;1.27;;
5191;SDS011;2615;44.524;11.284;2023-02-26T04:14:55;5.80;;;1.83;;
5191;SDS011;2615;44.524;11.284;2023-02-26T04:17:24;2.63;;;1.30;;
5191;SDS011;2615;44.524;11.284;2023-02-26T04:19:55;2.17;;;0.90;;
5191;SDS011;2615;44.524;11.284;2023-02-26T04:22:25;2.20;;;1.00;;
5191;SDS011;2615;44.524;11.284;2023-02-26T04:24:53;3.17;;;1.10;;
5191;SDS011;2615;44.524;11.284;2023-02-26T04:27:21;2.20;;;1.20;;
5191;SDS011;2615;44.524;11.284;2023-02-26T04:29:49;6.57;;;1.40;;
5191;SDS011;2615;44.524;11.284;2023-02-26T04:32:17;2.20;;;1.10;;
5191;SDS011;2615;44.524;11.284;2023-02-26T04:34:45;3.30;;;1.40;;
5191;SDS011;2615;44.524;11.284;2023-02-26T04:37:13;3.37;;;1.33;;
5191;SDS011;2615;44.524;11.284;2023-02-26T04:39:43;4.40;;;1.33;;
5191;SDS011;2615;44.524;11.284;2023-02-26T04:42:11;3.47;;;2.00;;
5191;SDS011;2615;44.524;11.284;2023-02-26T04:44:39;2.57;;;1.00;;
5191;SDS011;2615;44.524;11.284;2023-02-26T04:47:07;2.10;;;1.20;;
5191;SDS011;2615;44.524;11.284;2023-02-26T04:49:35;2.37;;;1.23;;
5191;SDS011;2615;44.524;11.284;2023-02-26T04:52:03;2.03;;;1.10;;
5191;SDS011;2615;44.524;11.284;2023-02-26T04:54:32;8.77;;;1.30;;
5191;SDS011;2615;44.524;11.284;2023-02-26T04:57:01;2.57;;;1.10;;
5191;SDS011;2615;44.524;11.284;2023-02-26T04:59:29;3.77;;;1.70;;
5191;SDS011;2615;44.524;11.284;2023-02-26T05:01:57;5.53;;;1.30;;
5191;SDS011;2615;44.524;11.284;2023-02-26T05:04:26;4.17;;;1.20;;
5191;SDS011;2615;44.524;11.284;2023-02-26T05:06:54;6.90;;;1.40;;
5191;SDS011;2615;44.524;11.284;2023-02-26T05:09:22;2.70;;;1.40;;
5191;SDS011;2615;44.524;11.284;2023-02-26T05:11:50;5.10;;;1.30;;
5191;SDS011;2615;44.524;11.284;2023-02-26T05:14:20;2.20;;;1.20;;
5191;SDS011;2615;44.524;11.284;2023-02-26T05:16:48;6.43;;;1.40;;
5191;SDS011;2615;44.524;11.284;2023-02-26T05:19:16;5.53;;;1.37;;
5191;SDS011;2615;44.524;11.284;2023-02-26T05:21:44;4.80;;;1.10;;
5191;SDS011;2615;44.524;11.284;2023-02-26T05:24:12;4.33;;;1.17;;
5191;SDS011;2615;44.524;11.284;2023-02-26T05:26:40;5.00;;;1.27;;
5191;SDS011;2615;44.524;11.284;2023-02-26T05:29:08;1.70;;;1.00;;
5191;SDS011;2615;44.524;11.284;2023-02-26T05:31:38;1.97;;;1.10;;
5191;SDS011;2615;44.524;11.284;2023-02-26T05:34:06;2.93;;;1.13;;
5191;SDS011;2615;44.524;11.284;2023-02-26T05:36:34;2.40;;;1.20;;
5191;SDS011;2615;44.524;11.284;2023-02-26T05:39:02;2.60;;;1.03;;
5191;SDS011;2615;44.524;11.284;2023-02-26T05:41:30;3.67;;;1.07;;
5191;SDS011;2615;44.524;11.284;2023-02-26T05:43:58;2.93;;;1.20;;
5191;SDS011;2615;44.524;11.284;2023-02-26T05:46:27;2.43;;;1.10;;
5191;SDS011;2615;44.524;11.284;2023-02-26T05:48:57;4.13;;;1.30;;
5191;SDS011;2615;44.524;11.284;2023-02-26T05:51:25;4.23;;;1.57;;
5191;SDS011;2615;44.524;11.284;2023-02-26T05:53:53;11.70;;;1.40;;
5191;SDS011;2615;44.524;11.284;2023-02-26T05:56:21;7.23;;;1.70;;
5191;SDS011;2615;44.524;11.284;2023-02-26T05:58:50;4.17;;;1.10;;
5191;SDS011;2615;44.524;11.284;2023-02-26T06:01:18;3.03;;;0.90;;
5191;SDS011;2615;44.524;11.284;2023-02-26T06:03:46;4.30;;;1.33;;
5191;SDS011;2615;44.524;11.284;2023-02-26T06:06:16;2.37;;;1.20;;
5191;SDS011;2615;44.524;11.284;2023-02-26T06:08:44;4.73;;;1.33;;
5191;SDS011;2615;44.524;11.284;2023-02-26T06:11:12;3.10;;;1.40;;
5191;SDS011;2615;44.524;11.284;2023-02-26T06:13:40;4.70;;;1.50;;
5191;SDS011;2615;44.524;11.284;2023-02-26T06:16:08;2.80;;;1.00;;
5191;SDS011;2615;44.524;11.284;2023-02-26T06:18:37;2.90;;;1.17;;
5191;SDS011;2615;44.524;11.284;2023-02-26T06:21:05;4.03;;;1.67;;
5191;SDS011;2615;44.524;11.284;2023-02-26T06:23:34;3.03;;;1.10;;
5191;SDS011;2615;44.524;11.284;2023-02-26T06:26:02;4.97;;;1.50;;
5191;SDS011;2615;44.524;11.284;2023-02-26T06:28:31;6.97;;;1.10;;
5191;SDS011;2615;44.524;11.284;2023-02-26T06:30:59;6.40;;;1.37;;
5191;SDS011;2615;44.524;11.284;2023-02-26T06:33:27;3.97;;;1.37;;
5191;SDS011;2615;44.524;11.284;2023-02-26T06:35:55;6.00;;;1.47;;
5191;SDS011;2615;44.524;11.284;2023-02-26T06:38:25;4.10;;;1.70;;
5191;SDS011;2615;44.524;11.284;2023-02-26T06:40:55;3.60;;;1.50;;
5191;SDS011;2615;44.524;11.284;2023-02-26T06:43:23;6.20;;;1.60;;
5191;SDS011;2615;44.524;11.284;2023-02-26T06:45:51;7.10;;;1.47;;
5191;SDS011;2615;44.524;11.284;2023-02-26T06:48:19;3.30;;;1.00;;
5191;SDS011;2615;44.524;11.284;2023-02-26T06:50:47;5.10;;;2.33;;
5191;SDS011;2615;44.524;11.284;2023-02-26T06:53:15;7.43;;;1.80;;
5191;SDS011;2615;44.524;11.284;2023-02-26T06:55:43;4.10;;;1.63;;
5191;SDS011;2615;44.524;11.284;2023-02-26T06:58:13;5.90;;;1.43;;
5191;SDS011;2615;44.524;11.284;2023-02-26T07:00:41;3.97;;;1.20;;
5191;SDS011;2615;44.524;11.284;2023-02-26T07:03:10;3.20;;;1.13;;
5191;SDS011;2615;44.524;11.284;2023-02-26T07:05:39;4.73;;;1.90;;
5191;SDS011;2615;44.524;11.284;2023-02-26T07:08:08;9.83;;;1.60;;
5191;SDS011;2615;44.524;11.284;2023-02-26T07:10:36;7.90;;;1.63;;
5191;SDS011;2615;44.524;11.284;2023-02-26T07:13:04;4.90;;;1.33;;
5191;SDS011;2615;44.524;11.284;2023-02-26T07:15:34;3.33;;;1.10;;
5191;SDS011;2615;44.524;11.284;2023-02-26T07:18:02;2.10;;;1.20;;
5191;SDS011;2615;44.524;11.284;2023-02-26T07:20:31;6.27;;;1.33;;
5191;SDS011;2615;44.524;11.284;2023-02-26T07:22:59;4.93;;;1.30;;
5191;SDS011;2615;44.524;11.284;2023-02-26T07:25:28;5.03;;;1.57;;
5191;SDS011;2615;44.524;11.284;2023-02-26T07:27:56;6.83;;;1.37;;
5191;SDS011;2615;44.524;11.284;2023-02-26T07:30:25;4.30;;;1.63;;
5191;SDS011;2615;44.524;11.284;2023-02-26T07:32:55;6.77;;;1.60;;
5191;SDS011;2615;44.524;11.284;2023-02-26T07:35:23;2.80;;;0.90;;
5191;SDS011;2615;44.524;11.284;2023-02-26T07:37:51;4.30;;;1.30;;
5191;SDS011;2615;44.524;11.284;2023-02-26T07:40:19;3.50;;;0.97;;
5191;SDS011;2615;44.524;11.284;2023-02-26T07:42:47;2.10;;;1.20;;
5191;SDS011;2615;44.524;11.284;2023-02-26T07:45:16;6.83;;;2.97;;
5191;SDS011;2615;44.524;11.284;2023-02-26T07:47:47;3.70;;;1.30;;
5191;SDS011;2615;44.524;11.284;2023-02-26T07:50:18;4.30;;;1.73;;
5191;SDS011;2615;44.524;11.284;2023-02-26T07:52:50;5.43;;;2.27;;
5191;SDS011;2615;44.524;11.284;2023-02-26T07:55:19;4.47;;;1.27;;
5191;SDS011;2615;44.524;11.284;2023-02-26T07:57:47;4.67;;;1.83;;
5191;SDS011;2615;44.524;11.284;2023-02-26T08:00:16;7.83;;;2.47;;
5191;SDS011;2615;44.524;11.284;2023-02-26T08:02:44;5.50;;;1.60;;
5191;SDS011;2615;44.524;11.284;2023-02-26T08:05:13;3.13;;;1.40;;
5191;SDS011;2615;44.524;11.284;2023-02-26T08:07:42;9.43;;;1.57;;
5191;SDS011;2615;44.524;11.284;2023-02-26T08:10:10;5.07;;;1.47;;
5191;SDS011;2615;44.524;11.284;2023-02-26T08:12:39;6.53;;;1.80;;
5191;SDS011;2615;44.524;11.284;2023-02-26T08:15:07;9.40;;;1.90;;
5191;SDS011;2615;44.524;11.284;2023-02-26T08:17:37;5.53;;;1.80;;
5191;SDS011;2615;44.524;11.284;2023-02-26T08:20:06;10.10;;;2.40;;
5191;SDS011;2615;44.524;11.284;2023-02-26T08:22:35;6.37;;;1.80;;
5191;SDS011;2615;44.524;11.284;2023-02-26T08:25:05;5.03;;;1.60;;
5191;SDS011;2615;44.524;11.284;2023-02-26T08:27:33;8.43;;;1.40;;
5191;SDS011;2615;44.524;11.284;2023-02-26T08:30:01;3.63;;;1.37;;
5191;SDS011;2615;44.524;11.284;2023-02-26T08:32:30;8.77;;;2.50;;
5191;SDS011;2615;44.524;11.284;2023-02-26T08:34:58;4.30;;;1.37;;
5191;SDS011;2615;44.524;11.284;2023-02-26T08:37:26;5.17;;;1.40;;
5191;SDS011;2615;44.524;11.284;2023-02-26T08:39:54;4.90;;;1.10;;
5191;SDS011;2615;44.524;11.284;2023-02-26T08:42:23;4.73;;;1.70;;
5191;SDS011;2615;44.524;11.284;2023-02-26T08:44:51;5.40;;;1.77;;
5191;SDS011;2615;44.524;11.284;2023-02-26T08:47:20;3.10;;;1.40;;
5191;SDS011;2615;44.524;11.284;2023-02-26T08:49:54;5.00;;;1.63;;
5191;SDS011;2615;44.524;11.284;2023-02-26T08:52:24;3.87;;;1.40;;
5191;SDS011;2615;44.524;11.284;2023-02-26T08:54:52;6.23;;;1.47;;
5191;SDS011;2615;44.524;11.284;2023-02-26T08:57:20;3.67;;;1.30;;
5191;SDS011;2615;44.524;11.284;2023-02-26T08:59:50;3.23;;;1.90;;
5191;SDS011;2615;44.524;11.284;2023-02-26T09:02:18;4.30;;;1.40;;
5191;SDS011;2615;44.524;11.284;2023-02-26T09:04:46;8.60;;;2.40;;
5191;SDS011;2615;44.524;11.284;2023-02-26T09:07:14;4.20;;;1.40;;
5191;SDS011;2615;44.524;11.284;2023-02-26T09:09:42;7.97;;;1.37;;
5191;SDS011;2615;44.524;11.284;2023-02-26T09:12:10;6.23;;;1.40;;
5191;SDS011;2615;44.524;11.284;2023-02-26T09:14:38;4.50;;;1.20;;
5191;SDS011;2615;44.524;11.284;2023-02-26T09:17:07;8.37;;;1.87;;
5191;SDS011;2615;44.524;11.284;2023-02-26T09:19:35;5.70;;;1.60;;
5191;SDS011;2615;44.524;11.284;2023-02-26T09:22:03;4.10;;;1.30;;
5191;SDS011;2615;44.524;11.284;2023-02-26T09:24:33;6.60;;;1.10;;
5191;SDS011;2615;44.524;11.284;2023-02-26T09:27:01;11.50;;;1.70;;
5191;SDS011;2615;44.524;11.284;2023-02-26T09:29:29;3.60;;;1.50;;
5191;SDS011;2615;44.524;11.284;2023-02-26T09:31:58;4.40;;;1.47;;
5191;SDS011;2615;44.524;11.284;2023-02-26T09:34:27;7.40;;;1.40;;
5191;SDS011;2615;44.524;11.284;2023-02-26T09:36:55;5.30;;;1.43;;
5191;SDS011;2615;44.524;11.284;2023-02-26T09:39:23;3.40;;;1.30;;
5191;SDS011;2615;44.524;11.284;2023-02-26T09:41:52;7.70;;;2.00;;
5191;SDS011;2615;44.524;11.284;2023-02-26T09:44:22;5.23;;;2.30;;
5191;SDS011;2615;44.524;11.284;2023-02-26T09:46:56;6.40;;;2.20;;
5191;SDS011;2615;44.524;11.284;2023-02-26T09:49:31;5.67;;;1.50;;
5191;SDS011;2615;44.524;11.284;2023-02-26T09:52:10;5.30;;;1.90;;
5191;SDS011;2615;44.524;11.284;2023-02-26T09:54:43;5.90;;;2.03;;
5191;SDS011;2615;44.524;11.284;2023-02-26T09:57:17;3.20;;;2.17;;
5191;SDS011;2615;44.524;11.284;2023-02-26T09:59:53;4.73;;;1.70;;
5191;SDS011;2615;44.524;11.284;2023-02-26T10:02:23;7.57;;;1.73;;
5191;SDS011;2615;44.524;11.284;2023-02-26T10:05:00;4.17;;;1.50;;
5191;SDS011;2615;44.524;11.284;2023-02-26T10:07:38;8.33;;;1.60;;
5191;SDS011;2615;44.524;11.284;2023-02-26T10:10:15;4.23;;;1.20;;
5191;SDS011;2615;44.524;11.284;2023-02-26T10:12:49;3.83;;;1.17;;
5191;SDS011;2615;44.524;11.284;2023-02-26T10:15:19;2.73;;;1.13;;
5191;SDS011;2615;44.524;11.284;2023-02-26T10:17:56;2.80;;;1.37;;
5191;SDS011;2615;44.524;11.284;2023-02-26T10:20:31;7.37;;;1.50;;
5191;SDS011;2615;44.524;11.284;2023-02-26T10:23:05;6.33;;;1.77;;
5191;SDS011;2615;44.524;11.284;2023-02-26T10:25:43;5.63;;;1.23;;
5191;SDS011;2615;44.524;11.284;2023-02-26T10:28:23;5.45;;;1.15;;
5191;SDS011;2615;44.524;11.284;2023-02-26T10:31:10;7.17;;;1.50;;
5191;SDS011;2615;44.524;11.284;2023-02-26T10:33:45;5.03;;;2.10;;
5191;SDS011;2615;44.524;11.284;2023-02-26T10:36:23;7.80;;;1.47;;
5191;SDS011;2615;44.524;11.284;2023-02-26T10:38:55;5.83;;;1.70;;
5191;SDS011;2615;44.524;11.284;2023-02-26T10:41:29;9.40;;;2.47;;
5191;SDS011;2615;44.524;11.284;2023-02-26T10:44:02;9.47;;;1.80;;
5191;SDS011;2615;44.524;11.284;2023-02-26T10:46:37;9.67;;;1.90;;
5191;SDS011;2615;44.524;11.284;2023-02-26T10:49:19;7.55;;;1.85;;
5191;SDS011;2615;44.524;11.284;2023-02-26T10:52:00;12.50;;;1.97;;
5191;SDS011;2615;44.524;11.284;2023-02-26T10:54:37;6.30;;;1.73;;
5191;SDS011;2615;44.524;11.284;2023-02-26T10:57:15;6.90;;;1.73;;
5191;SDS011;2615;44.524;11.284;2023-02-26T10:59:49;6.13;;;2.10;;
5191;SDS011;2615;44.524;11.284;2023-02-26T11:02:25;5.07;;;2.17;;
5191;SDS011;2615;44.524;11.284;2023-02-26T11:05:03;10.30;;;2.25;;
5191;SDS011;2615;44.524;11.284;2023-02-26T11:07:35;8.60;;;2.00;;
5191;SDS011;2615;44.524;11.284;2023-02-26T11:10:11;11.52;;;1.92;;
5191;SDS011;2615;44.524;11.284;2023-02-26T11:12:42;2.40;;;1.67;;
5191;SDS011;2615;44.524;11.284;2023-02-26T11:15:11;4.30;;;2.13;;
5191;SDS011;2615;44.524;11.284;2023-02-26T11:17:40;6.23;;;2.30;;
5191;SDS011;2615;44.524;11.284;2023-02-26T11:20:14;6.47;;;2.87;;
5191;SDS011;2615;44.524;11.284;2023-02-26T11:22:47;6.37;;;2.20;;
5191;SDS011;2615;44.524;11.284;2023-02-26T11:25:19;7.13;;;2.10;;
5191;SDS011;2615;44.524;11.284;2023-02-26T11:27:52;4.13;;;1.77;;
5191;SDS011;2615;44.524;11.284;2023-02-26T11:30:26;11.30;;;2.70;;
5191;SDS011;2615;44.524;11.284;2023-02-26T11:32:58;4.00;;;1.77;;
5191;SDS011;2615;44.524;11.284;2023-02-26T11:35:33;4.23;;;1.93;;
5191;SDS011;2615;44.524;11.284;2023-02-26T11:38:02;6.33;;;1.70;;
5191;SDS011;2615;44.524;11.284;2023-02-26T11:40:33;9.20;;;2.77;;
5191;SDS011;2615;44.524;11.284;2023-02-26T11:43:04;13.83;;;2.67;;
5191;SDS011;2615;44.524;11.284;2023-02-26T11:45:38;7.63;;;2.73;;
5191;SDS011;2615;44.524;11.284;2023-02-26T11:48:12;10.33;;;2.30;;
5191;SDS011;2615;44.524;11.284;2023-02-26T11:50:43;7.17;;;2.57;;
5191;SDS011;2615;44.524;11.284;2023-02-26T11:53:16;6.60;;;2.57;;
5191;SDS011;2615;44.524;11.284;2023-02-26T11:55:47;5.03;;;1.90;;
5191;SDS011;2615;44.524;11.284;2023-02-26T11:58:19;5.90;;;2.43;;
5191;SDS011;2615;44.524;11.284;2023-02-26T12:00:50;7.97;;;2.83;;
5191;SDS011;2615;44.524;11.284;2023-02-26T12:03:20;6.88;;;2.60;;
5191;SDS011;2615;44.524;11.284;2023-02-26T12:05:49;16.10;;;2.93;;
5191;SDS011;2615;44.524;11.284;2023-02-26T12:08:22;16.13;;;3.00;;
5191;SDS011;2615;44.524;11.284;2023-02-26T12:10:56;9.55;;;2.83;;
5191;SDS011;2615;44.524;11.284;2023-02-26T12:13:33;10.48;;;3.40;;
5191;SDS011;2615;44.524;11.284;2023-02-26T12:16:11;8.13;;;2.30;;
5191;SDS011;2615;44.524;11.284;2023-02-26T12:18:48;9.10;;;2.28;;
5191;SDS011;2615;44.524;11.284;2023-02-26T12:21:28;8.10;;;3.40;;
5191;SDS011;2615;44.524;11.284;2023-02-26T12:24:21;7.50;;;2.47;;
5191;SDS011;2615;44.524;11.284;2023-02-26T12:27:02;10.27;;;2.50;;
5191;SDS011;2615;44.524;11.284;2023-02-26T12:29:47;7.00;;;2.88;;
5191;SDS011;2615;44.524;11.284;2023-02-26T12:32:30;4.95;;;2.72;;
5191;SDS011;2615;44.524;11.284;2023-02-26T12:35:14;7.35;;;2.80;;
5191;SDS011;2615;44.524;11.284;2023-02-26T12:38:08;6.07;;;2.00;;
5191;SDS011;2615;44.524;11.284;2023-02-26T12:43:46;7.55;;;2.22;;
5191;SDS011;2615;44.524;11.284;2023-02-26T12:46:20;4.63;;;2.10;;
5191;SDS011;2615;44.524;11.284;2023-02-26T12:51:56;8.65;;;3.13;;
5191;SDS011;2615;44.524;11.284;2023-02-26T13:00:51;8.43;;;3.10;;
5191;SDS011;2615;44.524;11.284;2023-02-26T13:03:34;5.95;;;2.47;;
5191;SDS011;2615;44.524;11.284;2023-02-26T13:06:39;7.20;;;2.43;;
5191;SDS011;2615;44.524;11.284;2023-02-26T13:09:22;11.02;;;2.75;;
5191;SDS011;2615;44.524;11.284;2023-02-26T13:12:00;9.98;;;2.80;;
5191;SDS011;2615;44.524;11.284;2023-02-26T13:14:43;7.40;;;3.40;;
5191;SDS011;2615;44.524;11.284;2023-02-26T13:17:19;5.60;;;2.50;;
5191;SDS011;2615;44.524;11.284;2023-02-26T13:19:55;15.48;;;5.93;;
5191;SDS011;2615;44.524;11.284;2023-02-26T13:22:27;6.43;;;2.70;;
5191;SDS011;2615;44.524;11.284;2023-02-26T13:24:59;8.20;;;2.63;;
5191;SDS011;2615;44.524;11.284;2023-02-26T13:27:31;6.95;;;2.80;;
5191;SDS011;2615;44.524;11.284;2023-02-26T13:30:09;6.60;;;2.43;;
5191;SDS011;2615;44.524;11.284;2023-02-26T13:32:46;8.00;;;3.27;;
5191;SDS011;2615;44.524;11.284;2023-02-26T13:35:18;8.32;;;2.92;;
5191;SDS011;2615;44.524;11.284;2023-02-26T13:37:49;7.75;;;3.00;;
5191;SDS011;2615;44.524;11.284;2023-02-26T13:43:20;13.17;;;3.50;;
5191;SDS011;2615;44.524;11.284;2023-02-26T13:46:03;6.28;;;2.78;;
5191;SDS011;2615;44.524;11.284;2023-02-26T13:48:44;8.68;;;2.55;;
5191;SDS011;2615;44.524;11.284;2023-02-26T13:51:26;5.00;;;2.10;;
5191;SDS011;2615;44.524;11.284;2023-02-26T13:54:00;11.82;;;2.95;;
5191;SDS011;2615;44.524;11.284;2023-02-26T13:56:52;4.40;;;2.00;;
5191;SDS011;2615;44.524;11.284;2023-02-26T13:59:28;10.07;;;2.70;;
5191;SDS011;2615;44.524;11.284;2023-02-26T14:02:36;11.68;;;2.95;;
5191;SDS011;2615;44.524;11.284;2023-02-26T14:10:55;6.50;;;2.35;;
5191;SDS011;2615;44.524;11.284;2023-02-26T14:13:31;7.73;;;2.90;;
5191;SDS011;2615;44.524;11.284;2023-02-26T14:16:08;3.58;;;2.75;;
5191;SDS011;2615;44.524;11.284;2023-02-26T14:18:42;11.02;;;2.72;;
5191;SDS011;2615;44.524;11.284;2023-02-26T14:21:27;6.05;;;2.67;;
5191;SDS011;2615;44.524;11.284;2023-02-26T14:24:05;7.80;;;2.45;;
5191;SDS011;2615;44.524;11.284;2023-02-26T14:26:42;5.22;;;2.53;;
5191;SDS011;2615;44.524;11.284;2023-02-26T14:29:14;8.65;;;3.25;;
5191;SDS011;2615;44.524;11.284;2023-02-26T14:34:45;5.85;;;3.00;;
5191;SDS011;2615;44.524;11.284;2023-02-26T14:37:18;5.57;;;3.53;;
5191;SDS011;2615;44.524;11.284;2023-02-26T14:39:50;5.13;;;2.63;;
5191;SDS011;2615;44.524;11.284;2023-02-26T14:42:26;8.75;;;2.90;;
5191;SDS011;2615;44.524;11.284;2023-02-26T14:45:02;10.95;;;3.00;;
5191;SDS011;2615;44.524;11.284;2023-02-26T14:47:35;7.57;;;2.42;;
5191;SDS011;2615;44.524;11.284;2023-02-26T14:50:06;4.30;;;2.45;;
5191;SDS011;2615;44.524;11.284;2023-02-26T14:55:42;7.70;;;2.10;;
5191;SDS011;2615;44.524;11.284;2023-02-26T14:58:21;11.50;;;2.60;;
5191;SDS011;2615;44.524;11.284;2023-02-26T15:01:17;6.22;;;2.63;;
5191;SDS011;2615;44.524;11.284;2023-02-26T15:07:02;8.82;;;3.20;;
5191;SDS011;2615;44.524;11.284;2023-02-26T15:10:02;6.32;;;2.90;;
5191;SDS011;2615;44.524;11.284;2023-02-26T15:12:47;7.57;;;3.25;;
5191;SDS011;2615;44.524;11.284;2023-02-26T15:15:31;10.82;;;2.80;;
5191;SDS011;2615;44.524;11.284;2023-02-26T15:18:11;12.48;;;2.80;;
5191;SDS011;2615;44.524;11.284;2023-02-26T15:20:52;7.60;;;2.80;;
5191;SDS011;2615;44.524;11.284;2023-02-26T15:23:40;4.78;;;3.05;;
5191;SDS011;2615;44.524;11.284;2023-02-26T15:26:12;10.40;;;3.20;;
5191;SDS011;2615;44.524;11.284;2023-02-26T15:28:45;6.00;;;3.40;;
5191;SDS011;2615;44.524;11.284;2023-02-26T15:31:14;14.57;;;3.60;;
5191;SDS011;2615;44.524;11.284;2023-02-26T15:33:46;4.40;;;2.80;;
5191;SDS011;2615;44.524;11.284;2023-02-26T15:36:16;10.90;;;3.70;;
5191;SDS011;2615;44.524;11.284;2023-02-26T15:38:52;9.98;;;3.03;;
5191;SDS011;2615;44.524;11.284;2023-02-26T15:41:21;4.88;;;2.80;;
5191;SDS011;2615;44.524;11.284;2023-02-26T15:43:52;8.00;;;3.10;;
5191;SDS011;2615;44.524;11.284;2023-02-26T15:46:24;7.95;;;3.45;;
5191;SDS011;2615;44.524;11.284;2023-02-26T15:48:57;8.15;;;3.17;;
5191;SDS011;2615;44.524;11.284;2023-02-26T15:51:27;9.23;;;3.05;;
5191;SDS011;2615;44.524;11.284;2023-02-26T15:53:57;5.57;;;2.83;;
5191;SDS011;2615;44.524;11.284;2023-02-26T15:56:30;6.57;;;2.80;;